sensor_id;sensor_type;location;lat;lon;timestamp;temperature;humidity
22321;DHT22;11328;53.928;18.522;2022-08-07T00:02:10;14.00;99.90
22321;DHT22;11328;53.928;18.522;2022-08-07T00:04:57;13.90;99.90
22321;DHT22;11328;53.928;18.522;2022-08-07T00:07:24;13.90;99.90
22321;DHT22;11328;53.928;18.522;2022-08-07T00:10:02;13.90;99.90
22321;DHT22;11328;53.928;18.522;2022-08-07T00:12:51;13.90;99.90
22321;DHT22;11328;53.928;18.522;2022-08-07T00:15:28;13.90;99.90
22321;DHT22;11328;53.928;18.522;2022-08-07T00:18:13;13.80;99.90
22321;DHT22;11328;53.928;18.522;2022-08-07T00:20:46;13.70;99.90
22321;DHT22;11328;53.928;18.522;2022-08-07T00:23:15;13.80;99.90
22321;DHT22;11328;53.928;18.522;2022-08-07T00:25:43;13.80;99.90
22321;DHT22;11328;53.928;18.522;2022-08-07T00:28:19;13.80;99.90
22321;DHT22;11328;53.928;18.522;2022-08-07T00:30:47;13.70;99.90
22321;DHT22;11328;53.928;18.522;2022-08-07T00:33:15;13.60;99.90
22321;DHT22;11328;53.928;18.522;2022-08-07T00:35:43;13.60;99.90
22321;DHT22;11328;53.928;18.522;2022-08-07T00:38:15;13.60;99.90
22321;DHT22;11328;53.928;18.522;2022-08-07T00:40:58;13.60;99.90
22321;DHT22;11328;53.928;18.522;2022-08-07T00:43:25;13.50;99.90
22321;DHT22;11328;53.928;18.522;2022-08-07T00:46:13;13.50;99.90
22321;DHT22;11328;53.928;18.522;2022-08-07T00:48:40;13.50;99.90
22321;DHT22;11328;53.928;18.522;2022-08-07T00:51:08;13.50;99.90
22321;DHT22;11328;53.928;18.522;2022-08-07T00:53:36;13.50;99.90
22321;DHT22;11328;53.928;18.522;2022-08-07T00:56:16;13.50;99.90
22321;DHT22;11328;53.928;18.522;2022-08-07T00:58:44;13.50;99.90
22321;DHT22;11328;53.928;18.522;2022-08-07T01:01:16;13.50;99.90
22321;DHT22;11328;53.928;18.522;2022-08-07T01:03:43;13.50;99.90
22321;DHT22;11328;53.928;18.522;2022-08-07T01:06:27;13.50;99.90
22321;DHT22;11328;53.928;18.522;2022-08-07T01:08:56;13.50;99.90
22321;DHT22;11328;53.928;18.522;2022-08-07T01:11:30;13.50;99.90
22321;DHT22;11328;53.928;18.522;2022-08-07T01:14:22;13.50;99.90
22321;DHT22;11328;53.928;18.522;2022-08-07T01:16:55;13.50;99.90
22321;DHT22;11328;53.928;18.522;2022-08-07T01:19:23;13.50;99.90
22321;DHT22;11328;53.928;18.522;2022-08-07T01:21:58;13.50;99.90
22321;DHT22;11328;53.928;18.522;2022-08-07T01:24:29;13.50;99.90
22321;DHT22;11328;53.928;18.522;2022-08-07T01:26:59;13.50;99.90
22321;DHT22;11328;53.928;18.522;2022-08-07T01:29:27;13.40;99.90
22321;DHT22;11328;53.928;18.522;2022-08-07T01:31:57;13.40;99.90
22321;DHT22;11328;53.928;18.522;2022-08-07T01:34:25;13.40;99.90
22321;DHT22;11328;53.928;18.522;2022-08-07T01:36:57;13.30;99.90
22321;DHT22;11328;53.928;18.522;2022-08-07T01:39:26;13.30;99.90
22321;DHT22;11328;53.928;18.522;2022-08-07T01:42:15;13.20;99.90
22321;DHT22;11328;53.928;18.522;2022-08-07T01:45:04;13.20;99.90
22321;DHT22;11328;53.928;18.522;2022-08-07T01:47:42;13.20;99.90
22321;DHT22;11328;53.928;18.522;2022-08-07T01:50:30;13.20;99.90
22321;DHT22;11328;53.928;18.522;2022-08-07T01:52:59;13.20;99.90
22321;DHT22;11328;53.928;18.522;2022-08-07T01:55:41;13.10;99.90
22321;DHT22;11328;53.928;18.522;2022-08-07T01:58:15;13.10;99.90
22321;DHT22;11328;53.928;18.522;2022-08-07T02:01:03;13.10;99.90
22321;DHT22;11328;53.928;18.522;2022-08-07T02:04:02;13.10;99.90
22321;DHT22;11328;53.928;18.522;2022-08-07T02:06:35;13.10;99.90
22321;DHT22;11328;53.928;18.522;2022-08-07T02:09:08;13.10;99.90
22321;DHT22;11328;53.928;18.522;2022-08-07T02:11:58;13.10;99.90
22321;DHT22;11328;53.928;18.522;2022-08-07T02:14:49;13.10;99.90
22321;DHT22;11328;53.928;18.522;2022-08-07T02:17:19;13.10;99.90
22321;DHT22;11328;53.928;18.522;2022-08-07T02:20:00;13.10;99.90
22321;DHT22;11328;53.928;18.522;2022-08-07T02:22:43;13.10;99.90
22321;DHT22;11328;53.928;18.522;2022-08-07T02:25:13;13.10;99.90
22321;DHT22;11328;53.928;18.522;2022-08-07T02:27:45;13.10;99.90
22321;DHT22;11328;53.928;18.522;2022-08-07T02:30:18;13.10;99.90
22321;DHT22;11328;53.928;18.522;2022-08-07T02:32:46;13.10;99.90
22321;DHT22;11328;53.928;18.522;2022-08-07T02:35:35;13.20;99.90
22321;DHT22;11328;53.928;18.522;2022-08-07T02:38:27;13.20;99.90
22321;DHT22;11328;53.928;18.522;2022-08-07T02:41:00;13.20;99.90
22321;DHT22;11328;53.928;18.522;2022-08-07T02:43:30;13.20;99.90
22321;DHT22;11328;53.928;18.522;2022-08-07T02:46:01;13.30;99.90
22321;DHT22;11328;53.928;18.522;2022-08-07T02:48:30;13.30;99.90
22321;DHT22;11328;53.928;18.522;2022-08-07T02:51:05;13.20;99.90
22321;DHT22;11328;53.928;18.522;2022-08-07T02:53:57;13.10;99.90
22321;DHT22;11328;53.928;18.522;2022-08-07T02:56:29;13.10;99.90
22321;DHT22;11328;53.928;18.522;2022-08-07T02:59:01;13.10;99.90
22321;DHT22;11328;53.928;18.522;2022-08-07T03:01:31;13.10;99.90
22321;DHT22;11328;53.928;18.522;2022-08-07T03:04:07;13.10;99.90
22321;DHT22;11328;53.928;18.522;2022-08-07T03:06:43;13.00;99.90
22321;DHT22;11328;53.928;18.522;2022-08-07T03:09:14;13.00;99.90
22321;DHT22;11328;53.928;18.522;2022-08-07T03:12:05;13.10;99.90
22321;DHT22;11328;53.928;18.522;2022-08-07T03:14:38;13.00;99.90
22321;DHT22;11328;53.928;18.522;2022-08-07T03:17:14;13.00;99.90
22321;DHT22;11328;53.928;18.522;2022-08-07T03:19:42;13.00;99.90
22321;DHT22;11328;53.928;18.522;2022-08-07T03:22:22;13.00;99.90
22321;DHT22;11328;53.928;18.522;2022-08-07T03:24:57;13.00;99.90
22321;DHT22;11328;53.928;18.522;2022-08-07T03:27:26;13.00;99.90
22321;DHT22;11328;53.928;18.522;2022-08-07T03:30:08;13.00;99.90
22321;DHT22;11328;53.928;18.522;2022-08-07T03:32:40;13.10;99.90
22321;DHT22;11328;53.928;18.522;2022-08-07T03:35:27;13.00;99.90
22321;DHT22;11328;53.928;18.522;2022-08-07T03:38:16;13.00;99.90
22321;DHT22;11328;53.928;18.522;2022-08-07T03:40:54;12.90;99.90
22321;DHT22;11328;53.928;18.522;2022-08-07T03:43:24;12.90;99.90
22321;DHT22;11328;53.928;18.522;2022-08-07T03:45:57;12.90;99.90
22321;DHT22;11328;53.928;18.522;2022-08-07T03:48:28;12.90;99.90
22321;DHT22;11328;53.928;18.522;2022-08-07T03:50:59;12.90;99.90
22321;DHT22;11328;53.928;18.522;2022-08-07T03:53:28;13.00;99.90
22321;DHT22;11328;53.928;18.522;2022-08-07T03:56:20;13.10;99.90
22321;DHT22;11328;53.928;18.522;2022-08-07T03:59:01;13.00;99.90
22321;DHT22;11328;53.928;18.522;2022-08-07T04:01:40;13.00;99.90
22321;DHT22;11328;53.928;18.522;2022-08-07T04:04:12;13.10;99.90
22321;DHT22;11328;53.928;18.522;2022-08-07T04:06:43;13.10;99.90
22321;DHT22;11328;53.928;18.522;2022-08-07T04:09:11;13.10;99.90
22321;DHT22;11328;53.928;18.522;2022-08-07T04:11:45;13.20;99.90
22321;DHT22;11328;53.928;18.522;2022-08-07T04:14:33;13.10;99.90
22321;DHT22;11328;53.928;18.522;2022-08-07T04:17:10;13.20;99.90
22321;DHT22;11328;53.928;18.522;2022-08-07T04:19:46;13.20;99.90
22321;DHT22;11328;53.928;18.522;2022-08-07T04:22:22;13.20;99.90
22321;DHT22;11328;53.928;18.522;2022-08-07T04:24:58;13.30;99.90
22321;DHT22;11328;53.928;18.522;2022-08-07T04:27:28;13.40;99.90
22321;DHT22;11328;53.928;18.522;2022-08-07T04:30:10;13.40;99.90
22321;DHT22;11328;53.928;18.522;2022-08-07T04:32:58;13.50;99.90
22321;DHT22;11328;53.928;18.522;2022-08-07T04:35:26;13.50;99.90
22321;DHT22;11328;53.928;18.522;2022-08-07T04:38:07;13.60;99.90
22321;DHT22;11328;53.928;18.522;2022-08-07T04:40:40;13.70;99.90
22321;DHT22;11328;53.928;18.522;2022-08-07T04:43:21;13.70;99.90
22321;DHT22;11328;53.928;18.522;2022-08-07T04:46:41;13.80;99.90
22321;DHT22;11328;53.928;18.522;2022-08-07T04:50:05;13.90;99.90
22321;DHT22;11328;53.928;18.522;2022-08-07T04:55:56;14.10;99.90
22321;DHT22;11328;53.928;18.522;2022-08-07T04:59:01;14.20;99.90
22321;DHT22;11328;53.928;18.522;2022-08-07T05:02:17;14.40;99.90
22321;DHT22;11328;53.928;18.522;2022-08-07T05:04:52;14.50;99.90
22321;DHT22;11328;53.928;18.522;2022-08-07T05:07:59;14.60;99.90
22321;DHT22;11328;53.928;18.522;2022-08-07T05:10:30;14.70;99.90
22321;DHT22;11328;53.928;18.522;2022-08-07T05:13:08;14.90;99.90
22321;DHT22;11328;53.928;18.522;2022-08-07T05:16:03;14.90;99.90
22321;DHT22;11328;53.928;18.522;2022-08-07T05:18:37;15.10;99.90
22321;DHT22;11328;53.928;18.522;2022-08-07T05:21:11;15.10;99.90
22321;DHT22;11328;53.928;18.522;2022-08-07T05:23:46;15.30;99.90
22321;DHT22;11328;53.928;18.522;2022-08-07T05:26:19;15.40;99.90
22321;DHT22;11328;53.928;18.522;2022-08-07T05:28:52;15.40;99.90
22321;DHT22;11328;53.928;18.522;2022-08-07T05:31:23;15.70;99.90
22321;DHT22;11328;53.928;18.522;2022-08-07T05:34:01;15.90;99.90
22321;DHT22;11328;53.928;18.522;2022-08-07T05:36:38;16.00;99.90
22321;DHT22;11328;53.928;18.522;2022-08-07T05:39:08;16.30;99.90
22321;DHT22;11328;53.928;18.522;2022-08-07T05:41:57;16.50;99.90
22321;DHT22;11328;53.928;18.522;2022-08-07T05:44:30;16.60;99.90
22321;DHT22;11328;53.928;18.522;2022-08-07T05:47:13;16.90;99.90
22321;DHT22;11328;53.928;18.522;2022-08-07T05:50:02;16.90;99.90
22321;DHT22;11328;53.928;18.522;2022-08-07T05:52:31;17.20;99.90
22321;DHT22;11328;53.928;18.522;2022-08-07T05:54:59;17.30;99.90
22321;DHT22;11328;53.928;18.522;2022-08-07T05:57:36;17.50;99.90
22321;DHT22;11328;53.928;18.522;2022-08-07T06:00:08;17.70;99.90
22321;DHT22;11328;53.928;18.522;2022-08-07T06:02:47;18.00;99.90
22321;DHT22;11328;53.928;18.522;2022-08-07T06:05:17;18.30;99.90
22321;DHT22;11328;53.928;18.522;2022-08-07T06:07:56;18.40;99.90
22321;DHT22;11328;53.928;18.522;2022-08-07T06:10:45;18.50;99.90
22321;DHT22;11328;53.928;18.522;2022-08-07T06:13:17;18.70;99.90
22321;DHT22;11328;53.928;18.522;2022-08-07T06:16:06;18.90;99.90
22321;DHT22;11328;53.928;18.522;2022-08-07T06:18:36;19.30;99.90
22321;DHT22;11328;53.928;18.522;2022-08-07T06:21:05;19.30;99.90
22321;DHT22;11328;53.928;18.522;2022-08-07T06:23:53;19.20;99.90
22321;DHT22;11328;53.928;18.522;2022-08-07T06:26:41;19.70;99.90
22321;DHT22;11328;53.928;18.522;2022-08-07T06:29:08;20.20;99.90
22321;DHT22;11328;53.928;18.522;2022-08-07T06:31:37;20.40;99.90
22321;DHT22;11328;53.928;18.522;2022-08-07T06:34:15;20.60;99.90
22321;DHT22;11328;53.928;18.522;2022-08-07T06:36:46;20.90;99.90
22321;DHT22;11328;53.928;18.522;2022-08-07T06:39:18;21.10;99.90
22321;DHT22;11328;53.928;18.522;2022-08-07T06:42:13;20.80;99.90
22321;DHT22;11328;53.928;18.522;2022-08-07T06:44:46;21.00;99.90
22321;DHT22;11328;53.928;18.522;2022-08-07T06:47:17;21.20;99.90
22321;DHT22;11328;53.928;18.522;2022-08-07T06:49:46;21.40;99.90
22321;DHT22;11328;53.928;18.522;2022-08-07T06:52:18;21.80;99.90
22321;DHT22;11328;53.928;18.522;2022-08-07T06:55:12;21.80;99.90
22321;DHT22;11328;53.928;18.522;2022-08-07T06:58:06;21.60;99.90
22321;DHT22;11328;53.928;18.522;2022-08-07T07:00:38;21.60;99.90
22321;DHT22;11328;53.928;18.522;2022-08-07T07:03:08;21.90;99.90
22321;DHT22;11328;53.928;18.522;2022-08-07T07:05:43;22.10;99.90
22321;DHT22;11328;53.928;18.522;2022-08-07T07:08:30;22.10;99.90
22321;DHT22;11328;53.928;18.522;2022-08-07T07:10:59;22.10;99.90
22321;DHT22;11328;53.928;18.522;2022-08-07T07:13:43;22.30;99.90
22321;DHT22;11328;53.928;18.522;2022-08-07T07:16:31;22.60;99.90
22321;DHT22;11328;53.928;18.522;2022-08-07T07:19:18;23.00;99.90
22321;DHT22;11328;53.928;18.522;2022-08-07T07:22:09;22.90;99.90
22321;DHT22;11328;53.928;18.522;2022-08-07T07:24:58;22.90;99.90
22321;DHT22;11328;53.928;18.522;2022-08-07T07:31:38;23.20;99.90
22321;DHT22;11328;53.928;18.522;2022-08-07T07:34:22;23.20;99.90
22321;DHT22;11328;53.928;18.522;2022-08-07T07:36:59;23.20;99.90
22321;DHT22;11328;53.928;18.522;2022-08-07T07:39:49;23.30;99.90
22321;DHT22;11328;53.928;18.522;2022-08-07T07:42:25;23.30;99.90
22321;DHT22;11328;53.928;18.522;2022-08-07T07:45:00;23.50;99.90
22321;DHT22;11328;53.928;18.522;2022-08-07T07:47:31;23.40;99.90
22321;DHT22;11328;53.928;18.522;2022-08-07T07:50:20;23.30;99.90
22321;DHT22;11328;53.928;18.522;2022-08-07T07:53:05;23.50;99.90
22321;DHT22;11328;53.928;18.522;2022-08-07T07:55:51;23.60;99.80
22321;DHT22;11328;53.928;18.522;2022-08-07T07:58:31;23.50;99.90
22321;DHT22;11328;53.928;18.522;2022-08-07T08:01:08;24.00;99.90
22321;DHT22;11328;53.928;18.522;2022-08-07T08:04:02;24.50;99.00
22321;DHT22;11328;53.928;18.522;2022-08-07T08:06:38;23.70;98.70
22321;DHT22;11328;53.928;18.522;2022-08-07T08:09:20;23.30;99.20
22321;DHT22;11328;53.928;18.522;2022-08-07T08:11:56;23.10;99.00
22321;DHT22;11328;53.928;18.522;2022-08-07T08:14:34;23.10;99.40
22321;DHT22;11328;53.928;18.522;2022-08-07T08:17:06;23.30;98.70
22321;DHT22;11328;53.928;18.522;2022-08-07T08:20:00;23.60;98.60
22321;DHT22;11328;53.928;18.522;2022-08-07T08:22:49;23.40;98.70
22321;DHT22;11328;53.928;18.522;2022-08-07T08:25:41;23.70;99.30
22321;DHT22;11328;53.928;18.522;2022-08-07T08:28:35;23.70;97.00
22321;DHT22;11328;53.928;18.522;2022-08-07T08:31:15;23.60;97.70
22321;DHT22;11328;53.928;18.522;2022-08-07T08:34:09;23.80;97.70
22321;DHT22;11328;53.928;18.522;2022-08-07T08:36:54;24.40;96.40
22321;DHT22;11328;53.928;18.522;2022-08-07T08:39:25;24.90;96.10
22321;DHT22;11328;53.928;18.522;2022-08-07T08:42:18;24.80;94.90
22321;DHT22;11328;53.928;18.522;2022-08-07T08:48:50;25.60;95.20
22321;DHT22;11328;53.928;18.522;2022-08-07T08:51:38;24.80;93.50
22321;DHT22;11328;53.928;18.522;2022-08-07T08:54:40;24.60;94.30
22321;DHT22;11328;53.928;18.522;2022-08-07T08:57:26;24.90;94.00
22321;DHT22;11328;53.928;18.522;2022-08-07T09:00:06;25.20;93.00
22321;DHT22;11328;53.928;18.522;2022-08-07T09:05:22;25.90;91.90
22321;DHT22;11328;53.928;18.522;2022-08-07T09:08:43;25.70;91.60
22321;DHT22;11328;53.928;18.522;2022-08-07T09:11:34;24.90;90.90
22321;DHT22;11328;53.928;18.522;2022-08-07T09:14:38;24.80;91.80
22321;DHT22;11328;53.928;18.522;2022-08-07T09:20:53;25.50;90.70
22321;DHT22;11328;53.928;18.522;2022-08-07T09:23:40;26.20;90.40
22321;DHT22;11328;53.928;18.522;2022-08-07T09:30:03;25.40;89.00
22321;DHT22;11328;53.928;18.522;2022-08-07T09:33:07;25.10;89.30
22321;DHT22;11328;53.928;18.522;2022-08-07T09:36:23;25.80;90.20
22321;DHT22;11328;53.928;18.522;2022-08-07T09:45:54;26.60;87.40
22321;DHT22;11328;53.928;18.522;2022-08-07T09:52:22;25.90;84.70
22321;DHT22;11328;53.928;18.522;2022-08-07T09:55:23;26.00;85.40
22321;DHT22;11328;53.928;18.522;2022-08-07T10:10:55;25.00;87.20
22321;DHT22;11328;53.928;18.522;2022-08-07T10:17:16;24.80;88.20
22321;DHT22;11328;53.928;18.522;2022-08-07T10:20:44;24.20;88.10
22321;DHT22;11328;53.928;18.522;2022-08-07T10:30:17;24.10;89.70
22321;DHT22;11328;53.928;18.522;2022-08-07T10:33:13;24.30;90.00
22321;DHT22;11328;53.928;18.522;2022-08-07T10:40:51;24.40;90.00
22321;DHT22;11328;53.928;18.522;2022-08-07T10:43:43;24.60;87.10
22321;DHT22;11328;53.928;18.522;2022-08-07T10:50:02;24.90;89.40
22321;DHT22;11328;53.928;18.522;2022-08-07T10:53:00;25.10;86.00
22321;DHT22;11328;53.928;18.522;2022-08-07T10:58:41;25.10;84.70
22321;DHT22;11328;53.928;18.522;2022-08-07T11:02:38;24.90;86.20
22321;DHT22;11328;53.928;18.522;2022-08-07T11:08:44;24.30;88.20
22321;DHT22;11328;53.928;18.522;2022-08-07T11:11:31;24.40;89.00
22321;DHT22;11328;53.928;18.522;2022-08-07T11:14:32;24.60;88.50
22321;DHT22;11328;53.928;18.522;2022-08-07T11:17:29;24.50;89.00
22321;DHT22;11328;53.928;18.522;2022-08-07T11:21:10;24.40;86.50
22321;DHT22;11328;53.928;18.522;2022-08-07T11:23:35;24.40;86.70
22321;DHT22;11328;53.928;18.522;2022-08-07T11:29:50;24.40;85.70
22321;DHT22;11328;53.928;18.522;2022-08-07T11:32:55;24.40;85.10
22321;DHT22;11328;53.928;18.522;2022-08-07T11:35:52;24.50;85.90
22321;DHT22;11328;53.928;18.522;2022-08-07T11:38:32;24.80;86.90
22321;DHT22;11328;53.928;18.522;2022-08-07T11:41:27;24.80;85.20
22321;DHT22;11328;53.928;18.522;2022-08-07T11:44:33;24.90;85.20
22321;DHT22;11328;53.928;18.522;2022-08-07T12:09:55;25.00;85.70
22321;DHT22;11328;53.928;18.522;2022-08-07T12:12:15;25.60;84.40
22321;DHT22;11328;53.928;18.522;2022-08-07T12:14:58;25.80;84.00
22321;DHT22;11328;53.928;18.522;2022-08-07T12:17:55;25.80;84.10
22321;DHT22;11328;53.928;18.522;2022-08-07T12:23:43;25.90;84.10
22321;DHT22;11328;53.928;18.522;2022-08-07T12:26:50;25.80;82.00
22321;DHT22;11328;53.928;18.522;2022-08-07T12:29:35;25.80;82.40
22321;DHT22;11328;53.928;18.522;2022-08-07T12:32:18;25.90;82.00
22321;DHT22;11328;53.928;18.522;2022-08-07T12:34:50;26.30;82.30
22321;DHT22;11328;53.928;18.522;2022-08-07T12:37:23;26.40;81.30
22321;DHT22;11328;53.928;18.522;2022-08-07T12:40:25;26.30;80.90
22321;DHT22;11328;53.928;18.522;2022-08-07T12:43:15;26.30;82.00
22321;DHT22;11328;53.928;18.522;2022-08-07T12:52:20;26.10;80.10
22321;DHT22;11328;53.928;18.522;2022-08-07T12:58:24;26.00;77.00
22321;DHT22;11328;53.928;18.522;2022-08-07T13:08:04;25.40;79.00
22321;DHT22;11328;53.928;18.522;2022-08-07T13:14:35;25.80;78.40
22321;DHT22;11328;53.928;18.522;2022-08-07T13:20:15;25.00;79.80
22321;DHT22;11328;53.928;18.522;2022-08-07T13:23:07;25.10;80.20
22321;DHT22;11328;53.928;18.522;2022-08-07T13:26:13;25.20;79.80
22321;DHT22;11328;53.928;18.522;2022-08-07T13:29:10;25.30;81.50
22321;DHT22;11328;53.928;18.522;2022-08-07T13:31:59;25.10;80.60
22321;DHT22;11328;53.928;18.522;2022-08-07T13:35:13;24.90;82.70
22321;DHT22;11328;53.928;18.522;2022-08-07T13:38:20;25.20;82.70
22321;DHT22;11328;53.928;18.522;2022-08-07T13:43:48;25.20;84.10
22321;DHT22;11328;53.928;18.522;2022-08-07T13:46:20;25.30;83.80
22321;DHT22;11328;53.928;18.522;2022-08-07T13:49:00;25.20;83.90
22321;DHT22;11328;53.928;18.522;2022-08-07T13:51:51;25.10;85.50
22321;DHT22;11328;53.928;18.522;2022-08-07T13:54:40;25.20;85.90
22321;DHT22;11328;53.928;18.522;2022-08-07T13:57:16;25.30;85.10
22321;DHT22;11328;53.928;18.522;2022-08-07T13:59:50;25.30;84.20
22321;DHT22;11328;53.928;18.522;2022-08-07T14:02:26;25.40;85.00
22321;DHT22;11328;53.928;18.522;2022-08-07T14:05:20;25.30;86.90
22321;DHT22;11328;53.928;18.522;2022-08-07T14:07:49;25.30;86.60
22321;DHT22;11328;53.928;18.522;2022-08-07T14:10:35;25.20;87.90
22321;DHT22;11328;53.928;18.522;2022-08-07T14:13:14;25.30;86.80
22321;DHT22;11328;53.928;18.522;2022-08-07T14:16:01;25.40;86.30
22321;DHT22;11328;53.928;18.522;2022-08-07T14:18:49;25.40;86.30
22321;DHT22;11328;53.928;18.522;2022-08-07T14:21:26;25.50;86.60
22321;DHT22;11328;53.928;18.522;2022-08-07T14:24:31;25.50;85.50
22321;DHT22;11328;53.928;18.522;2022-08-07T14:27:10;25.50;85.80
22321;DHT22;11328;53.928;18.522;2022-08-07T14:30:05;25.50;85.10
22321;DHT22;11328;53.928;18.522;2022-08-07T14:32:49;25.60;85.00
22321;DHT22;11328;53.928;18.522;2022-08-07T14:35:27;25.30;84.60
22321;DHT22;11328;53.928;18.522;2022-08-07T14:38:22;25.20;85.50
22321;DHT22;11328;53.928;18.522;2022-08-07T14:41:26;25.20;85.70
22321;DHT22;11328;53.928;18.522;2022-08-07T14:44:19;25.30;85.70
22321;DHT22;11328;53.928;18.522;2022-08-07T14:46:53;25.40;84.20
22321;DHT22;11328;53.928;18.522;2022-08-07T14:49:42;25.40;84.70
22321;DHT22;11328;53.928;18.522;2022-08-07T14:52:25;25.50;84.50
22321;DHT22;11328;53.928;18.522;2022-08-07T14:54:57;25.60;84.30
22321;DHT22;11328;53.928;18.522;2022-08-07T14:57:29;25.60;83.50
22321;DHT22;11328;53.928;18.522;2022-08-07T15:00:25;25.60;82.80
22321;DHT22;11328;53.928;18.522;2022-08-07T15:03:16;25.50;83.70
22321;DHT22;11328;53.928;18.522;2022-08-07T15:06:07;25.30;83.50
22321;DHT22;11328;53.928;18.522;2022-08-07T15:08:37;25.30;84.50
22321;DHT22;11328;53.928;18.522;2022-08-07T15:11:25;25.40;85.50
22321;DHT22;11328;53.928;18.522;2022-08-07T15:14:22;25.30;85.20
22321;DHT22;11328;53.928;18.522;2022-08-07T15:16:59;25.40;84.60
22321;DHT22;11328;53.928;18.522;2022-08-07T15:19:38;25.30;84.20
22321;DHT22;11328;53.928;18.522;2022-08-07T15:22:48;25.30;84.40
22321;DHT22;11328;53.928;18.522;2022-08-07T15:25:24;25.30;85.00
22321;DHT22;11328;53.928;18.522;2022-08-07T15:28:05;25.30;84.10
22321;DHT22;11328;53.928;18.522;2022-08-07T15:30:58;25.20;84.40
22321;DHT22;11328;53.928;18.522;2022-08-07T15:33:33;25.20;84.80
22321;DHT22;11328;53.928;18.522;2022-08-07T15:36:08;25.20;85.00
22321;DHT22;11328;53.928;18.522;2022-08-07T15:38:38;25.10;84.00
22321;DHT22;11328;53.928;18.522;2022-08-07T15:41:28;25.10;84.30
22321;DHT22;11328;53.928;18.522;2022-08-07T15:44:18;25.10;84.30
22321;DHT22;11328;53.928;18.522;2022-08-07T15:47:08;25.10;83.80
22321;DHT22;11328;53.928;18.522;2022-08-07T15:49:44;24.90;83.50
22321;DHT22;11328;53.928;18.522;2022-08-07T15:52:34;25.00;84.40
22321;DHT22;11328;53.928;18.522;2022-08-07T15:55:06;24.90;85.20
22321;DHT22;11328;53.928;18.522;2022-08-07T15:57:39;24.80;86.10
22321;DHT22;11328;53.928;18.522;2022-08-07T16:00:20;24.50;89.40
22321;DHT22;11328;53.928;18.522;2022-08-07T16:03:20;24.10;90.30
22321;DHT22;11328;53.928;18.522;2022-08-07T16:06:11;23.80;90.90
22321;DHT22;11328;53.928;18.522;2022-08-07T16:08:45;23.60;91.40
22321;DHT22;11328;53.928;18.522;2022-08-07T16:17:54;23.20;92.20
22321;DHT22;11328;53.928;18.522;2022-08-07T16:21:00;23.20;92.50
22321;DHT22;11328;53.928;18.522;2022-08-07T16:23:59;23.20;92.60
22321;DHT22;11328;53.928;18.522;2022-08-07T16:34:25;22.90;93.30
22321;DHT22;11328;53.928;18.522;2022-08-07T16:37:32;22.90;93.20
22321;DHT22;11328;53.928;18.522;2022-08-07T16:47:31;22.90;93.50
22321;DHT22;11328;53.928;18.522;2022-08-07T16:54:28;22.60;94.20
22321;DHT22;11328;53.928;18.522;2022-08-07T16:57:30;22.30;94.60
22321;DHT22;11328;53.928;18.522;2022-08-07T17:00:38;22.30;94.60
22321;DHT22;11328;53.928;18.522;2022-08-07T17:03:17;22.40;94.70
22321;DHT22;11328;53.928;18.522;2022-08-07T17:09:24;22.30;95.00
22321;DHT22;11328;53.928;18.522;2022-08-07T17:12:27;22.40;94.70
22321;DHT22;11328;53.928;18.522;2022-08-07T17:15:37;22.10;95.20
22321;DHT22;11328;53.928;18.522;2022-08-07T17:18:41;22.10;95.40
22321;DHT22;11328;53.928;18.522;2022-08-07T17:21:19;22.30;95.30
22321;DHT22;11328;53.928;18.522;2022-08-07T17:27:04;22.20;95.30
22321;DHT22;11328;53.928;18.522;2022-08-07T17:30:04;22.30;95.30
22321;DHT22;11328;53.928;18.522;2022-08-07T17:36:29;22.30;95.40
22321;DHT22;11328;53.928;18.522;2022-08-07T17:39:31;22.10;95.70
22321;DHT22;11328;53.928;18.522;2022-08-07T17:42:38;22.30;95.50
22321;DHT22;11328;53.928;18.522;2022-08-07T17:45:33;22.30;95.60
22321;DHT22;11328;53.928;18.522;2022-08-07T17:48:16;22.30;95.40
22321;DHT22;11328;53.928;18.522;2022-08-07T17:54:13;22.00;95.70
22321;DHT22;11328;53.928;18.522;2022-08-07T18:00:24;21.70;95.90
22321;DHT22;11328;53.928;18.522;2022-08-07T18:03:12;21.70;96.10
22321;DHT22;11328;53.928;18.522;2022-08-07T18:05:54;21.70;96.10
22321;DHT22;11328;53.928;18.522;2022-08-07T18:08:47;21.60;96.30
22321;DHT22;11328;53.928;18.522;2022-08-07T18:15:07;21.40;96.50
22321;DHT22;11328;53.928;18.522;2022-08-07T18:17:50;21.30;96.50
22321;DHT22;11328;53.928;18.522;2022-08-07T18:21:01;21.10;96.70
22321;DHT22;11328;53.928;18.522;2022-08-07T18:24:41;21.10;97.20
22321;DHT22;11328;53.928;18.522;2022-08-07T18:43:52;20.70;97.70
22321;DHT22;11328;53.928;18.522;2022-08-07T18:46:46;20.60;98.00
22321;DHT22;11328;53.928;18.522;2022-08-07T18:56:48;20.40;98.50
22321;DHT22;11328;53.928;18.522;2022-08-07T19:03:08;20.20;99.10
22321;DHT22;11328;53.928;18.522;2022-08-07T19:11:25;19.90;99.90
22321;DHT22;11328;53.928;18.522;2022-08-07T19:26:19;19.80;99.90
22321;DHT22;11328;53.928;18.522;2022-08-07T19:28:59;20.60;99.40
22321;DHT22;11328;53.928;18.522;2022-08-07T19:31:50;20.40;99.70
22321;DHT22;11328;53.928;18.522;2022-08-07T19:34:41;20.30;99.90
22321;DHT22;11328;53.928;18.522;2022-08-07T19:37:22;20.20;99.90
22321;DHT22;11328;53.928;18.522;2022-08-07T19:40:11;20.20;99.90
22321;DHT22;11328;53.928;18.522;2022-08-07T19:42:57;20.10;99.90
22321;DHT22;11328;53.928;18.522;2022-08-07T19:45:26;20.00;99.90
22321;DHT22;11328;53.928;18.522;2022-08-07T19:48:14;20.00;99.90
22321;DHT22;11328;53.928;18.522;2022-08-07T19:50:50;19.90;99.90
22321;DHT22;11328;53.928;18.522;2022-08-07T19:53:23;19.80;99.90
22321;DHT22;11328;53.928;18.522;2022-08-07T19:56:12;19.80;99.90
22321;DHT22;11328;53.928;18.522;2022-08-07T19:59:01;19.70;99.90
22321;DHT22;11328;53.928;18.522;2022-08-07T20:01:44;19.70;99.90
22321;DHT22;11328;53.928;18.522;2022-08-07T20:04:26;19.60;99.90
22321;DHT22;11328;53.928;18.522;2022-08-07T20:07:05;19.50;99.90
22321;DHT22;11328;53.928;18.522;2022-08-07T20:09:44;19.50;99.90
22321;DHT22;11328;53.928;18.522;2022-08-07T20:12:34;19.50;99.90
22321;DHT22;11328;53.928;18.522;2022-08-07T20:15:10;19.50;99.90
22321;DHT22;11328;53.928;18.522;2022-08-07T20:17:48;19.60;99.90
22321;DHT22;11328;53.928;18.522;2022-08-07T20:20:30;19.70;99.90
22321;DHT22;11328;53.928;18.522;2022-08-07T20:23:09;19.70;99.90
22321;DHT22;11328;53.928;18.522;2022-08-07T20:26:05;19.70;99.90
22321;DHT22;11328;53.928;18.522;2022-08-07T20:28:37;19.70;99.90
22321;DHT22;11328;53.928;18.522;2022-08-07T20:31:14;19.70;99.90